Time;durP1;ratioP1;P1;durP2;ratioP2;P2;SDS_P1;SDS_P2;PMS_P1;PMS_P2;Temp;Humidity;BMP_temperature;BMP_pressure;BME280_temperature;BME280_humidity;BME280_pressure;Samples;Min_cycle;Max_cycle;Signal;HPM_P1;HPM_P2
2023/05/16 00:01:28;;;;;;;;;;;;;;;8.35;69.96875;102109;;;;-68
2023/05/16 00:06:27;;;;;;;;;;;;;;;8.29;69.64941;102110;;;;-68
2023/05/16 00:11:28;;;;;;;;;;;;;;;8.2;69.83496;102113.5;;;;-68
2023/05/16 00:16:28;;;;;;;;;;;;;;;8.2;69.84473;102107.6;;;;-68
2023/05/16 00:21:30;;;;;;;;;;;;;;;8.1;69.75098;102106.9;;;;-70
2023/05/16 00:24:52;;;;;;;0.2;0.1;;;;;;;;;;;;;-68
2023/05/16 00:26:27;;;;;;;;;;;;;;;8.06;69.54688;102107;;;;-68
2023/05/16 00:31:27;;;;;;;;;;;;;;;8;69.49219;102105.2;;;;-69
2023/05/16 00:36:27;;;;;;;;;;;;;;;7.96;69.67578;102104.9;;;;-68
2023/05/16 00:41:27;;;;;;;;;;;;;;;7.91;69.52344;102109;;;;-68
2023/05/16 00:46:29;;;;;;;;;;;;;;;7.85;69.50391;102106.4;;;;-68
2023/05/16 00:51:27;;;;;;;;;;;;;;;7.73;69.62695;102101.2;;;;-67
2023/05/16 00:54:54;;;;;;;0.2;0.1;;;;;;;;;;;;;-68
2023/05/16 00:56:27;;;;;;;;;;;;;;;7.73;69.73535;102098.1;;;;-68
2023/05/16 01:01:29;;;;;;;;;;;;;;;7.67;69.58398;102097.5;;;;-68
2023/05/16 01:06:27;;;;;;;;;;;;;;;7.59;69.62695;102099.3;;;;-67
2023/05/16 01:11:30;;;;;;;;;;;;;;;7.57;69.57813;102105.8;;;;-70
2023/05/16 01:16:30;;;;;;;;;;;;;;;7.54;69.62891;102107.2;;;;-69
2023/05/16 01:21:40;;;;;;;;;;;;;;;7.51;69.61426;102103.2;;;;-69
2023/05/16 01:25:02;;;;;;;0.2;0.1;;;;;;;;;;;;;-69
2023/05/16 01:26:28;;;;;;;;;;;;;;;7.46;69.53906;102114.2;;;;-68
2023/05/16 01:31:30;;;;;;;;;;;;;;;7.38;69.38281;102113.8;;;;-70
2023/05/16 01:36:30;;;;;;;;;;;;;;;7.4;69.46289;102116.2;;;;-67
2023/05/16 01:41:28;;;;;;;;;;;;;;;7.3;69.61328;102116.4;;;;-68
2023/05/16 01:46:29;;;;;;;;;;;;;;;7.26;69.42969;102113;;;;-68
2023/05/16 01:51:30;;;;;;;;;;;;;;;7.24;69.44922;102120.5;;;;-68
2023/05/16 01:54:58;;;;;;;0.3;0.1;;;;;;;;;;;;;-68
2023/05/16 01:56:28;;;;;;;;;;;;;;;7.21;69.38965;102125.5;;;;-68
2023/05/16 02:01:27;;;;;;;;;;;;;;;7.23;69.33691;102121.8;;;;-70
2023/05/16 02:06:28;;;;;;;;;;;;;;;7.19;69.44141;102119.4;;;;-68
2023/05/16 02:11:29;;;;;;;;;;;;;;;7.16;69.34961;102120.1;;;;-68
2023/05/16 02:16:27;;;;;;;;;;;;;;;7.15;69.3252;102122.7;;;;-68
2023/05/16 02:21:27;;;;;;;;;;;;;;;7.07;69.58594;102123.8;;;;-68
2023/05/16 02:24:55;;;;;;;0.2;0.1;;;;;;;;;;;;;-68
2023/05/16 02:26:27;;;;;;;;;;;;;;;7.06;69.52051;102126.1;;;;-68
2023/05/16 02:31:34;;;;;;;;;;;;;;;7.04;69.40625;102120;;;;-68
2023/05/16 02:36:27;;;;;;;;;;;;;;;7.02;69.35938;102126.8;;;;-69
2023/05/16 02:41:30;;;;;;;;;;;;;;;6.99;69.32129;102131.8;;;;-69
2023/05/16 02:46:31;;;;;;;;;;;;;;;6.95;69.42383;102133.7;;;;-68
2023/05/16 02:51:31;;;;;;;;;;;;;;;6.97;69.20703;102138;;;;-67
2023/05/16 02:54:55;;;;;;;0.2;0.1;;;;;;;;;;;;;-67
2023/05/16 02:56:27;;;;;;;;;;;;;;;6.95;69.02832;102138.1;;;;-67
2023/05/16 03:01:27;;;;;;;;;;;;;;;6.97;69.33887;102138.8;;;;-66
2023/05/16 03:06:27;;;;;;;;;;;;;;;6.95;69.1377;102140.4;;;;-68
2023/05/16 03:11:27;;;;;;;;;;;;;;;6.92;69.08984;102137.2;;;;-68
2023/05/16 03:16:27;;;;;;;;;;;;;;;6.88;69.15039;102147.5;;;;-68
2023/05/16 03:21:30;;;;;;;;;;;;;;;6.82;69.17285;102143.8;;;;-68
2023/05/16 03:24:56;;;;;;;1.8;1.3;;;;;;;;;;;;;-67
2023/05/16 03:26:27;;;;;;;;;;;;;;;6.83;69.14258;102143.8;;;;-67
2023/05/16 03:31:27;;;;;;;;;;;;;;;6.85;69.01172;102146.2;;;;-68
2023/05/16 03:36:27;;;;;;;;;;;;;;;6.78;69.16504;102145;;;;-68
2023/05/16 03:41:27;;;;;;;;;;;;;;;6.76;69.02148;102148.3;;;;-68
2023/05/16 03:46:27;;;;;;;;;;;;;;;6.75;69.01758;102154;;;;-69
2023/05/16 03:51:27;;;;;;;;;;;;;;;6.8;68.9502;102156.8;;;;-69
2023/05/16 03:54:58;;;;;;;0.2;0.1;;;;;;;;;;;;;-69
2023/05/16 03:56:27;;;;;;;;;;;;;;;6.82;68.82031;102156.1;;;;-67
2023/05/16 04:01:28;;;;;;;;;;;;;;;6.81;69.16016;102158;;;;-67
2023/05/16 04:06:28;;;;;;;;;;;;;;;6.82;68.76563;102164.2;;;;-69
2023/05/16 04:11:27;;;;;;;;;;;;;;;6.79;69.03613;102164.3;;;;-68
2023/05/16 04:16:27;;;;;;;;;;;;;;;6.79;69.01465;102162.4;;;;-69
2023/05/16 04:21:27;;;;;;;;;;;;;;;6.82;68.70996;102167.3;;;;-68
2023/05/16 04:24:57;;;;;;;0.2;0.1;;;;;;;;;;;;;-67
2023/05/16 04:26:27;;;;;;;;;;;;;;;6.83;68.81055;102171;;;;-68
2023/05/16 04:31:27;;;;;;;;;;;;;;;6.85;68.7168;102171.5;;;;-69
2023/05/16 04:36:30;;;;;;;;;;;;;;;6.87;68.78418;102175.3;;;;-69
2023/05/16 04:41:27;;;;;;;;;;;;;;;6.91;68.78027;102181.7;;;;-67
2023/05/16 04:46:27;;;;;;;;;;;;;;;6.92;68.83691;102180.7;;;;-67
2023/05/16 04:51:27;;;;;;;;;;;;;;;6.97;68.48047;102183.8;;;;-70
2023/05/16 04:54:59;;;;;;;0.2;0.1;;;;;;;;;;;;;-69
2023/05/16 04:56:27;;;;;;;;;;;;;;;7.01;68.62012;102189.9;;;;-68
2023/05/16 05:01:31;;;;;;;;;;;;;;;7.08;68.72852;102192.3;;;;-67
2023/05/16 05:06:27;;;;;;;;;;;;;;;7.14;68.5625;102195;;;;-68
2023/05/16 05:11:27;;;;;;;;;;;;;;;7.24;68.61133;102199.2;;;;-68
2023/05/16 05:16:27;;;;;;;;;;;;;;;7.4;68.63574;102199;;;;-68
2023/05/16 05:21:27;;;;;;;;;;;;;;;7.63;69.94043;102197.9;;;;-68
2023/05/16 05:24:58;;;;;;;0.2;0.1;;;;;;;;;;;;;-67
2023/05/16 05:26:27;;;;;;;;;;;;;;;7.86;70.24316;102203.1;;;;-69
2023/05/16 05:31:27;;;;;;;;;;;;;;;8.2;70.87109;102201.9;;;;-68
2023/05/16 05:36:27;;;;;;;;;;;;;;;8.71;69.09961;102200.3;;;;-68
2023/05/16 05:41:27;;;;;;;;;;;;;;;9.46;68.1543;102205.1;;;;-67
2023/05/16 05:46:27;;;;;;;;;;;;;;;10.13;67.22852;102205.3;;;;-68
2023/05/16 05:51:27;;;;;;;;;;;;;;;10.69;66.13574;102207.6;;;;-69
2023/05/16 05:54:58;;;;;;;0.2;0.1;;;;;;;;;;;;;-67
2023/05/16 05:56:27;;;;;;;;;;;;;;;11.17;64.68457;102213.3;;;;-68
2023/05/16 06:01:27;;;;;;;;;;;;;;;11.6;63.43262;102213.3;;;;-68
2023/05/16 06:06:27;;;;;;;;;;;;;;;11.94;63.4375;102220.5;;;;-68
2023/05/16 06:11:27;;;;;;;;;;;;;;;12.34;63.32813;102219.8;;;;-68
2023/05/16 06:16:36;;;;;;;;;;;;;;;12.65;62.69043;102221.9;;;;-69
2023/05/16 06:21:29;;;;;;;;;;;;;;;13.14;61.33887;102226.3;;;;-68
2023/05/16 06:25:00;;;;;;;0.2;0.1;;;;;;;;;;;;;-69
2023/05/16 06:26:27;;;;;;;;;;;;;;;13.16;61.91211;102227.6;;;;-68
2023/05/16 06:31:27;;;;;;;;;;;;;;;13.48;62.22754;102226.3;;;;-68
2023/05/16 06:36:33;;;;;;;;;;;;;;;13.62;61.83203;102238.5;;;;-69
2023/05/16 06:41:27;;;;;;;;;;;;;;;13.71;61.31934;102243.3;;;;-69
2023/05/16 06:46:27;;;;;;;;;;;;;;;13.41;61.79199;102246.2;;;;-71
2023/05/16 06:51:27;;;;;;;;;;;;;;;13.8;60.78223;102247.5;;;;-73
2023/05/16 06:55:01;;;;;;;0.2;0.1;;;;;;;;;;;;;-71
2023/05/16 06:56:27;;;;;;;;;;;;;;;14.01;60.10352;102250.5;;;;-71
2023/05/16 07:01:27;;;;;;;;;;;;;;;14.4;59.05664;102248.4;;;;-71
2023/05/16 07:06:30;;;;;;;;;;;;;;;14.18;59.28516;102251.8;;;;-70
2023/05/16 07:11:27;;;;;;;;;;;;;;;14.09;59.22852;102252.7;;;;-71
2023/05/16 07:16:30;;;;;;;;;;;;;;;14.09;59.58789;102250.3;;;;-70
2023/05/16 07:21:28;;;;;;;;;;;;;;;14.25;59.29492;102250.3;;;;-71
2023/05/16 07:25:03;;;;;;;0.2;0;;;;;;;;;;;;;-70
2023/05/16 07:26:27;;;;;;;;;;;;;;;14.3;59.48145;102259.8;;;;-69
2023/05/16 07:31:28;;;;;;;;;;;;;;;14.72;58.26758;102262.6;;;;-72
2023/05/16 07:36:27;;;;;;;;;;;;;;;15.11;58.39844;102264.2;;;;-71
2023/05/16 07:41:27;;;;;;;;;;;;;;;15.56;56.74512;102261.7;;;;-70
2023/05/16 07:46:27;;;;;;;;;;;;;;;15.84;56.49902;102263.4;;;;-70
2023/05/16 07:51:27;;;;;;;;;;;;;;;15.67;56.34082;102264.7;;;;-71
2023/05/16 07:55:05;;;;;;;0.2;0.1;;;;;;;;;;;;;-71
2023/05/16 07:56:29;;;;;;;;;;;;;;;15.32;57.20996;102272;;;;-71
2023/05/16 08:01:28;;;;;;;;;;;;;;;15.54;57.53125;102270.7;;;;-70
2023/05/16 08:06:28;;;;;;;;;;;;;;;16.16;56.52832;102276.3;;;;-69
2023/05/16 08:11:27;;;;;;;;;;;;;;;16.33;55.61328;102281.3;;;;-70
2023/05/16 08:16:27;;;;;;;;;;;;;;;16.28;55.92383;102283;;;;-70
2023/05/16 08:21:27;;;;;;;;;;;;;;;16.43;55.32031;102278.9;;;;-72
2023/05/16 08:25:07;;;;;;;0.2;0;;;;;;;;;;;;;-70
2023/05/16 08:26:27;;;;;;;;;;;;;;;16.87;54.71777;102275.9;;;;-70
2023/05/16 08:31:27;;;;;;;;;;;;;;;16.85;54.10645;102281.2;;;;-70
2023/05/16 08:36:27;;;;;;;;;;;;;;;16.49;54.27734;102286.7;;;;-69
2023/05/16 08:41:27;;;;;;;;;;;;;;;16.15;55.08301;102288.9;;;;-70
2023/05/16 08:46:27;;;;;;;;;;;;;;;16;55.91016;102289.7;;;;-69
2023/05/16 08:51:28;;;;;;;;;;;;;;;16.09;56.0791;102289.4;;;;-72
2023/05/16 08:55:10;;;;;;;0.2;0.1;;;;;;;;;;;;;-72
2023/05/16 08:56:30;;;;;;;;;;;;;;;16.57;55.45215;102287.6;;;;-72
2023/05/16 09:01:27;;;;;;;;;;;;;;;16.57;54.26465;102294.1;;;;-70
2023/05/16 09:06:27;;;;;;;;;;;;;;;16.21;54.88574;102293.3;;;;-73
2023/05/16 09:11:27;;;;;;;;;;;;;;;16.41;55.27344;102289;;;;-70
2023/05/16 09:16:27;;;;;;;;;;;;;;;16.6;55.41992;102288.7;;;;-70
2023/05/16 09:21:31;;;;;;;;;;;;;;;17.1;54.83887;102290.8;;;;-72
2023/05/16 09:25:12;;;;;;;0.2;0.1;;;;;;;;;;;;;-72
2023/05/16 09:26:29;;;;;;;;;;;;;;;17.52;53.58789;102291.5;;;;-70
2023/05/16 09:31:35;;;;;;;;;;;;;;;17.64;53.10352;102297.1;;;;-72
2023/05/16 09:36:28;;;;;;;;;;;;;;;18.06;52.10938;102291.5;;;;-73
2023/05/16 09:41:28;;;;;;;;;;;;;;;18.2;51.31934;102296.9;;;;-70
2023/05/16 09:46:28;;;;;;;;;;;;;;;18.66;50.67969;102291.1;;;;-70
2023/05/16 09:51:29;;;;;;;;;;;;;;;19.07;49.66602;102296.1;;;;-70
2023/05/16 09:55:14;;;;;;;0.2;0;;;;;;;;;;;;;-70
2023/05/16 09:56:28;;;;;;;;;;;;;;;19.15;49.5625;102292;;;;-72
2023/05/16 10:01:29;;;;;;;;;;;;;;;19.21;49.19336;102301.3;;;;-71
2023/05/16 10:06:27;;;;;;;;;;;;;;;19.16;48.86816;102307.5;;;;-71
2023/05/16 10:11:27;;;;;;;;;;;;;;;18.95;50.24609;102314;;;;-70
2023/05/16 10:16:27;;;;;;;;;;;;;;;18.74;48.90137;102302.5;;;;-70
2023/05/16 10:21:31;;;;;;;;;;;;;;;18.68;49.49902;102310.3;;;;-71
2023/05/16 10:25:20;;;;;;;0.4;0.2;;;;;;;;;;;;;-71
2023/05/16 10:26:28;;;;;;;;;;;;;;;18.33;50.43652;102307.5;;;;-70
2023/05/16 10:31:28;;;;;;;;;;;;;;;17.98;50.76074;102310.6;;;;-70
2023/05/16 10:36:28;;;;;;;;;;;;;;;17.81;51.16016;102314.2;;;;-71
2023/05/16 10:41:27;;;;;;;;;;;;;;;17.88;51.83887;102309.3;;;;-71
2023/05/16 10:46:27;;;;;;;;;;;;;;;17.9;50.94531;102303.3;;;;-73
2023/05/16 10:51:38;;;;;;;;;;;;;;;17.87;50.69141;102310.5;;;;-70
2023/05/16 10:55:20;;;;;;;0.2;0.1;;;;;;;;;;;;;-71
2023/05/16 10:56:30;;;;;;;;;;;;;;;17.7;51.25;102312.1;;;;-70
2023/05/16 11:01:28;;;;;;;;;;;;;;;17.63;51.30957;102310;;;;-71
2023/05/16 11:06:29;;;;;;;;;;;;;;;17.63;51.67383;102311;;;;-70
2023/05/16 11:11:38;;;;;;;;;;;;;;;17.68;52.23438;102310.1;;;;-70
2023/05/16 11:16:36;;;;;;;;;;;;;;;17.89;51.27246;102305.3;;;;-70
2023/05/16 11:21:40;;;;;;;;;;;;;;;18.01;51.24023;102300.6;;;;-69
2023/05/16 11:25:32;;;;;;;0.2;0;;;;;;;;;;;;;-73
2023/05/16 11:26:29;;;;;;;;;;;;;;;18.1;51.19531;102303.9;;;;-73
2023/05/16 11:31:27;;;;;;;;;;;;;;;18.15;50.92773;102305.1;;;;-71
2023/05/16 11:36:29;;;;;;;;;;;;;;;18.23;50.75586;102302.7;;;;-70
2023/05/16 11:41:27;;;;;;;;;;;;;;;18.36;51.39551;102314;;;;-70
2023/05/16 11:46:29;;;;;;;;;;;;;;;18.49;51.5;102313.9;;;;-71
2023/05/16 11:51:27;;;;;;;;;;;;;;;18.3;50.57031;102317.6;;;;-71
2023/05/16 11:55:28;;;;;;;0.2;0;;;;;;;;;;;;;-72
2023/05/16 11:56:27;;;;;;;;;;;;;;;18.18;51.49902;102314.7;;;;-69
2023/05/16 12:01:27;;;;;;;;;;;;;;;18.67;51.76172;102307.4;;;;-70
2023/05/16 12:06:28;;;;;;;;;;;;;;;19.01;51.40039;102309.7;;;;-71
2023/05/16 12:11:27;;;;;;;;;;;;;;;19.55;50.79297;102300.5;;;;-71
2023/05/16 12:16:27;;;;;;;;;;;;;;;20.02;49.7168;102312.5;;;;-70
2023/05/16 12:21:27;;;;;;;;;;;;;;;19.54;49.75488;102313.8;;;;-71
2023/05/16 12:25:30;;;;;;;0.2;0;;;;;;;;;;;;;-70
2023/05/16 12:26:33;;;;;;;;;;;;;;;19.58;49.89453;102301.4;;;;-71
2023/05/16 12:31:27;;;;;;;;;;;;;;;20.02;50.21973;102306;;;;-72
2023/05/16 12:36:27;;;;;;;;;;;;;;;20.38;49.16309;102313;;;;-70
2023/05/16 12:41:27;;;;;;;;;;;;;;;20.33;47.83105;102316.4;;;;-71
2023/05/16 12:46:28;;;;;;;;;;;;;;;20.23;49.39746;102317;;;;-70
2023/05/16 12:51:27;;;;;;;;;;;;;;;20.47;48.33887;102314.4;;;;-71
2023/05/16 12:55:34;;;;;;;0.9;0.3;;;;;;;;;;;;;-74
2023/05/16 12:56:32;;;;;;;;;;;;;;;20.81;49.91992;102310.3;;;;-71
2023/05/16 13:01:27;;;;;;;;;;;;;;;21.33;49.55371;102306.6;;;;-70
2023/05/16 13:06:27;;;;;;;;;;;;;;;21.55;48.28418;102307.2;;;;-71
2023/05/16 13:11:27;;;;;;;;;;;;;;;21.81;48.11719;102301.7;;;;-71
2023/05/16 13:16:27;;;;;;;;;;;;;;;21.82;47.48828;102307.2;;;;-71
2023/05/16 13:21:30;;;;;;;;;;;;;;;21.79;48.45898;102310.9;;;;-71
2023/05/16 13:25:34;;;;;;;0.2;0;;;;;;;;;;;;;-70
2023/05/16 13:26:27;;;;;;;;;;;;;;;21.93;46.51367;102301.2;;;;-70
2023/05/16 13:31:27;;;;;;;;;;;;;;;22.1;47.64453;102310.3;;;;-69
2023/05/16 13:36:27;;;;;;;;;;;;;;;22.26;47.39746;102315.4;;;;-70
2023/05/16 13:41:27;;;;;;;;;;;;;;;22.53;47.90723;102318.7;;;;-71
2023/05/16 13:46:27;;;;;;;;;;;;;;;22.62;46.67773;102324.1;;;;-70
2023/05/16 13:51:33;;;;;;;;;;;;;;;22.54;46.87598;102320.2;;;;-70
2023/05/16 13:55:38;;;;;;;0.2;0;;;;;;;;;;;;;-70
2023/05/16 13:56:30;;;;;;;;;;;;;;;22.66;45.78613;102324;;;;-71
2023/05/16 14:01:29;;;;;;;;;;;;;;;22.68;45.01758;102321.9;;;;-71
2023/05/16 14:06:27;;;;;;;;;;;;;;;22.71;46.16992;102334.9;;;;-70
2023/05/16 14:11:29;;;;;;;;;;;;;;;22.56;45.99414;102332.1;;;;-71
2023/05/16 14:16:28;;;;;;;;;;;;;;;22.32;45.56543;102326.6;;;;-70
2023/05/16 14:21:27;;;;;;;;;;;;;;;22.2;45.65723;102325.6;;;;-71
2023/05/16 14:25:41;;;;;;;0.2;0;;;;;;;;;;;;;-71
2023/05/16 14:26:31;;;;;;;;;;;;;;;22.18;46.28613;102329.1;;;;-70
2023/05/16 14:31:27;;;;;;;;;;;;;;;22.15;46.35352;102330.4;;;;-70
2023/05/16 14:36:27;;;;;;;;;;;;;;;22.06;45.20703;102331.9;;;;-71
2023/05/16 14:41:27;;;;;;;;;;;;;;;21.73;46.4707;102336.3;;;;-70
2023/05/16 14:46:26;;;;;;;;;;;;;;;21.35;47.27734;102336.2;;;;-70
2023/05/16 14:51:30;;;;;;;;;;;;;;;20.85;47.11133;102336.7;;;;-71
2023/05/16 14:55:45;;;;;;;0.2;0;;;;;;;;;;;;;-70
2023/05/16 14:56:27;;;;;;;;;;;;;;;20.49;48.04395;102333.8;;;;-70
2023/05/16 15:01:27;;;;;;;;;;;;;;;20.17;49.40137;102342.3;;;;-70
2023/05/16 15:06:27;;;;;;;;;;;;;;;19.92;49.31738;102336;;;;-70
2023/05/16 15:11:26;;;;;;;;;;;;;;;19.71;49.77246;102339.8;;;;-69
2023/05/16 15:16:29;;;;;;;;;;;;;;;19.47;50.05371;102341.9;;;;-70
2023/05/16 15:21:28;;;;;;;;;;;;;;;19.31;50.78711;102348.1;;;;-74
2023/05/16 15:25:51;;;;;;;2.9;0.4;;;;;;;;;;;;;-69
2023/05/16 15:26:29;;;;;;;;;;;;;;;19.34;51.46387;102337.7;;;;-68
2023/05/16 15:31:26;;;;;;;;;;;;;;;19.57;50.85059;102325.4;;;;-68
2023/05/16 15:36:27;;;;;;;;;;;;;;;19.8;50.94629;102330.2;;;;-70
2023/05/16 15:41:27;;;;;;;;;;;;;;;19.96;50.19922;102339.3;;;;-68
2023/05/16 15:46:29;;;;;;;;;;;;;;;20.05;49.66211;102342.9;;;;-68
2023/05/16 15:51:29;;;;;;;;;;;;;;;20.06;49.72168;102352.9;;;;-69
2023/05/16 15:55:52;;;;;;;1;0.3;;;;;;;;;;;;;-67
2023/05/16 15:56:27;;;;;;;;;;;;;;;19.98;49.81445;102349.2;;;;-69
2023/05/16 16:01:26;;;;;;;;;;;;;;;19.87;49.67676;102357.4;;;;-68
2023/05/16 16:06:27;;;;;;;;;;;;;;;19.68;50.21387;102357.4;;;;-68
2023/05/16 16:11:29;;;;;;;;;;;;;;;19.57;50.49805;102365.8;;;;-69
2023/05/16 16:16:28;;;;;;;;;;;;;;;19.39;51.02344;102364.5;;;;-73
2023/05/16 16:21:27;;;;;;;;;;;;;;;19.13;50.9375;102363.6;;;;-68
2023/05/16 16:25:58;;;;;;;0.3;0.2;;;;;;;;;;;;;-69
2023/05/16 16:26:27;;;;;;;;;;;;;;;18.92;50.50488;102365.5;;;;-68
2023/05/16 16:31:27;;;;;;;;;;;;;;;18.84;51.2793;102370.4;;;;-67
2023/05/16 16:36:27;;;;;;;;;;;;;;;18.84;51.22363;102374.5;;;;-68
2023/05/16 16:41:30;;;;;;;;;;;;;;;18.8;51.20703;102380.2;;;;-67
2023/05/16 16:46:27;;;;;;;;;;;;;;;18.67;50.92969;102379;;;;-70
2023/05/16 16:51:27;;;;;;;;;;;;;;;18.55;51.62109;102389.7;;;;-68
2023/05/16 16:55:59;;;;;;;0.2;0;;;;;;;;;;;;;-67
2023/05/16 16:56:28;;;;;;;;;;;;;;;18.44;51.58496;102385.9;;;;-67
2023/05/16 17:01:30;;;;;;;;;;;;;;;18.38;51.56738;102390.3;;;;-69
2023/05/16 17:06:30;;;;;;;;;;;;;;;18.26;51.41797;102391.2;;;;-69
2023/05/16 17:11:28;;;;;;;;;;;;;;;18.1;51.4668;102397.1;;;;-69
2023/05/16 17:16:27;;;;;;;;;;;;;;;17.92;51.53711;102404;;;;-68
2023/05/16 17:21:30;;;;;;;;;;;;;;;17.77;51.9502;102402.9;;;;-69
2023/05/16 17:26:01;;;;;;;0.2;0.1;;;;;;;;;;;;;-69
2023/05/16 17:26:28;;;;;;;;;;;;;;;17.63;52.26367;102411.2;;;;-70
2023/05/16 17:31:27;;;;;;;;;;;;;;;17.54;52.76172;102413.1;;;;-69
2023/05/16 17:36:27;;;;;;;;;;;;;;;17.36;52.41211;102419.5;;;;-69
2023/05/16 17:41:29;;;;;;;;;;;;;;;17.23;52.95117;102424.5;;;;-69
2023/05/16 17:46:27;;;;;;;;;;;;;;;17.1;52.99219;102426.8;;;;-67
2023/05/16 17:51:27;;;;;;;;;;;;;;;16.95;53.22559;102431.5;;;;-69
2023/05/16 17:56:03;;;;;;;0.2;0.1;;;;;;;;;;;;;-69
2023/05/16 17:56:27;;;;;;;;;;;;;;;16.8;53.53516;102438.5;;;;-69
2023/05/16 18:01:27;;;;;;;;;;;;;;;16.65;53.64063;102440.3;;;;-69
2023/05/16 18:06:27;;;;;;;;;;;;;;;16.45;53.93262;102439.5;;;;-69
2023/05/16 18:11:30;;;;;;;;;;;;;;;16.3;54.0957;102439.4;;;;-69
2023/05/16 18:16:27;;;;;;;;;;;;;;;16.15;54.49609;102445.6;;;;-68
2023/05/16 18:21:27;;;;;;;;;;;;;;;15.98;54.49707;102455.9;;;;-69
2023/05/16 18:26:06;;;;;;;0.2;0.1;;;;;;;;;;;;;-71
2023/05/16 18:26:27;;;;;;;;;;;;;;;15.87;54.83105;102460.3;;;;-68
2023/05/16 18:31:29;;;;;;;;;;;;;;;15.75;55.28027;102463.5;;;;-69
2023/05/16 18:36:29;;;;;;;;;;;;;;;15.59;55.3623;102463;;;;-69
2023/05/16 18:41:27;;;;;;;;;;;;;;;15.44;55.51172;102468.4;;;;-69
2023/05/16 18:46:27;;;;;;;;;;;;;;;15.3;55.65137;102473.9;;;;-68
2023/05/16 18:51:27;;;;;;;;;;;;;;;15.13;55.0332;102471.8;;;;-69
2023/05/16 18:56:08;;;;;;;0.2;0;;;;;;;;;;;;;-70
2023/05/16 18:56:27;;;;;;;;;;;;;;;14.96;54.8877;102478.1;;;;-68
2023/05/16 19:01:26;;;;;;;;;;;;;;;14.78;54.95508;102486.9;;;;-68
2023/05/16 19:06:27;;;;;;;;;;;;;;;14.57;54.65918;102492.4;;;;-69
2023/05/16 19:11:27;;;;;;;;;;;;;;;14.36;54.57813;102500;;;;-68
2023/05/16 19:16:27;;;;;;;;;;;;;;;14.18;55.43262;102505.7;;;;-69
2023/05/16 19:21:26;;;;;;;;;;;;;;;13.98;55.24902;102510.3;;;;-70
2023/05/16 19:26:11;;;;;;;0.4;0.3;;;;;;;;;;;;;-68
2023/05/16 19:26:29;;;;;;;;;;;;;;;13.73;55.21777;102514.5;;;;-69
2023/05/16 19:31:26;;;;;;;;;;;;;;;13.57;55.44531;102514.7;;;;-69
2023/05/16 19:36:27;;;;;;;;;;;;;;;13.37;56.00391;102517.3;;;;-67
2023/05/16 19:41:26;;;;;;;;;;;;;;;13.2;56.12695;102520;;;;-68
2023/05/16 19:46:31;;;;;;;;;;;;;;;13.03;56.62012;102519.1;;;;-69
2023/05/16 19:51:29;;;;;;;;;;;;;;;12.87;56.84668;102522.5;;;;-70
2023/05/16 19:56:13;;;;;;;0.2;0;;;;;;;;;;;;;-70
2023/05/16 19:56:27;;;;;;;;;;;;;;;12.72;57.31934;102521.7;;;;-70
2023/05/16 20:01:26;;;;;;;;;;;;;;;12.57;57.07617;102528.2;;;;-69
2023/05/16 20:06:27;;;;;;;;;;;;;;;12.43;57.41699;102533.1;;;;-68
2023/05/16 20:11:27;;;;;;;;;;;;;;;12.29;57.45508;102535.3;;;;-67
2023/05/16 20:16:26;;;;;;;;;;;;;;;12.15;58.15137;102541.1;;;;-68
2023/05/16 20:21:26;;;;;;;;;;;;;;;12.01;58.5127;102543.5;;;;-68
2023/05/16 20:26:15;;;;;;;0.2;0;;;;;;;;;;;;;-68
2023/05/16 20:26:27;;;;;;;;;;;;;;;11.9;58.83203;102545.7;;;;-68
2023/05/16 20:31:29;;;;;;;;;;;;;;;11.75;59.01367;102543.2;;;;-68
2023/05/16 20:36:32;;;;;;;;;;;;;;;11.64;59.03125;102541.6;;;;-67
2023/05/16 20:41:26;;;;;;;;;;;;;;;11.54;58.86133;102539.1;;;;-69
2023/05/16 20:46:29;;;;;;;;;;;;;;;11.42;59.02441;102544.5;;;;-69
2023/05/16 20:51:27;;;;;;;;;;;;;;;11.33;59.33496;102545.3;;;;-67
2023/05/16 20:56:16;;;;;;;0.2;0.1;;;;;;;;;;;;;-68
2023/05/16 20:56:26;;;;;;;;;;;;;;;11.21;59.62012;102553.5;;;;-69
2023/05/16 21:01:27;;;;;;;;;;;;;;;11.12;59.54199;102552.5;;;;-68
2023/05/16 21:06:27;;;;;;;;;;;;;;;11.04;59.78613;102555.3;;;;-68
2023/05/16 21:11:27;;;;;;;;;;;;;;;10.93;60.25195;102562.1;;;;-67
2023/05/16 21:16:28;;;;;;;;;;;;;;;10.84;60.06055;102567.6;;;;-68
2023/05/16 21:21:27;;;;;;;;;;;;;;;10.78;59.89648;102566.2;;;;-69
2023/05/16 21:26:18;;;;;;;0.2;0;;;;;;;;;;;;;-68
2023/05/16 21:26:29;;;;;;;;;;;;;;;10.7;60.7207;102567;;;;-68
2023/05/16 21:31:27;;;;;;;;;;;;;;;10.61;60.48438;102573.1;;;;-68
2023/05/16 21:36:26;;;;;;;;;;;;;;;10.53;60.51758;102572.7;;;;-68
2023/05/16 21:41:29;;;;;;;;;;;;;;;10.46;60.95313;102573.1;;;;-69
2023/05/16 21:46:26;;;;;;;;;;;;;;;10.39;60.68945;102571.1;;;;-68
2023/05/16 21:51:27;;;;;;;;;;;;;;;10.31;60.78809;102569.9;;;;-69
2023/05/16 21:56:19;;;;;;;0.2;0.1;;;;;;;;;;;;;-68
2023/05/16 21:56:29;;;;;;;;;;;;;;;10.26;61.15918;102564.4;;;;-70
2023/05/16 22:01:28;;;;;;;;;;;;;;;10.18;61.10352;102568.1;;;;-68
2023/05/16 22:06:27;;;;;;;;;;;;;;;10.13;60.91895;102575.1;;;;-69
2023/05/16 22:11:26;;;;;;;;;;;;;;;10.09;61.08105;102574.3;;;;-68
2023/05/16 22:16:27;;;;;;;;;;;;;;;10.02;61.43652;102568.6;;;;-69
2023/05/16 22:21:27;;;;;;;;;;;;;;;9.97;60.91699;102569.9;;;;-68
2023/05/16 22:26:20;;;;;;;0.2;0.1;;;;;;;;;;;;;-67
2023/05/16 22:26:30;;;;;;;;;;;;;;;9.87;61.29395;102573.5;;;;-70
2023/05/16 22:31:26;;;;;;;;;;;;;;;9.83;61.50977;102571.2;;;;-67
2023/05/16 22:36:26;;;;;;;;;;;;;;;9.77;61.49023;102578.3;;;;-68
2023/05/16 22:41:27;;;;;;;;;;;;;;;9.72;61.65039;102576.4;;;;-69
2023/05/16 22:46:26;;;;;;;;;;;;;;;9.65;61.40723;102586.2;;;;-68
2023/05/16 22:51:27;;;;;;;;;;;;;;;9.62;61.69043;102588.5;;;;-68
2023/05/16 22:56:21;;;;;;;0.2;0.1;;;;;;;;;;;;;-68
2023/05/16 22:56:31;;;;;;;;;;;;;;;9.59;61.47559;102584.7;;;;-70
2023/05/16 23:01:27;;;;;;;;;;;;;;;9.52;61.48926;102586.9;;;;-67
2023/05/16 23:06:27;;;;;;;;;;;;;;;9.46;61.74609;102592.3;;;;-67
2023/05/16 23:11:26;;;;;;;;;;;;;;;9.43;61.70898;102589.8;;;;-68
2023/05/16 23:16:27;;;;;;;;;;;;;;;9.43;61.60938;102582.5;;;;-69
2023/05/16 23:21:27;;;;;;;;;;;;;;;9.45;61.46777;102589.4;;;;-68
2023/05/16 23:26:22;;;;;;;0.2;0.1;;;;;;;;;;;;;-67
2023/05/16 23:26:32;;;;;;;;;;;;;;;9.43;61.94141;102593.3;;;;-69
2023/05/16 23:31:26;;;;;;;;;;;;;;;9.37;61.95508;102591.4;;;;-68
2023/05/16 23:36:27;;;;;;;;;;;;;;;9.32;61.7373;102599.1;;;;-68
2023/05/16 23:41:27;;;;;;;;;;;;;;;9.33;61.78223;102601.7;;;;-67
2023/05/16 23:46:27;;;;;;;;;;;;;;;9.3;61.68945;102609.7;;;;-67
2023/05/16 23:51:27;;;;;;;;;;;;;;;9.34;61.50781;102606.4;;;;-68
2023/05/16 23:56:26;;;;;;;0.2;0.1;;;;;;;;;;;;;-67
2023/05/16 23:56:36;;;;;;;;;;;;;;;9.38;61.73633;102590.8;;;;-68
